sensor_id;sensor_type;location;lat;lon;timestamp;temperature;humidity
10644;DHT22;5370;50.132;8.626;2023-04-25T00:02:12;10.50;93.00
10644;DHT22;5370;50.132;8.626;2023-04-25T00:04:38;10.50;93.00
10644;DHT22;5370;50.132;8.626;2023-04-25T00:07:04;10.50;93.10
10644;DHT22;5370;50.132;8.626;2023-04-25T00:09:30;10.50;93.10
10644;DHT22;5370;50.132;8.626;2023-04-25T00:11:55;10.50;93.20
10644;DHT22;5370;50.132;8.626;2023-04-25T00:14:21;10.40;93.30
10644;DHT22;5370;50.132;8.626;2023-04-25T00:16:48;10.50;93.30
10644;DHT22;5370;50.132;8.626;2023-04-25T00:19:13;10.40;93.30
10644;DHT22;5370;50.132;8.626;2023-04-25T00:21:39;10.40;93.40
10644;DHT22;5370;50.132;8.626;2023-04-25T00:24:08;10.40;93.50
10644;DHT22;5370;50.132;8.626;2023-04-25T00:26:34;10.40;93.50
10644;DHT22;5370;50.132;8.626;2023-04-25T00:29:01;10.40;93.60
10644;DHT22;5370;50.132;8.626;2023-04-25T00:31:26;10.40;93.60
10644;DHT22;5370;50.132;8.626;2023-04-25T00:33:52;10.40;93.70
10644;DHT22;5370;50.132;8.626;2023-04-25T00:36:18;10.40;93.70
10644;DHT22;5370;50.132;8.626;2023-04-25T00:38:44;10.40;93.80
10644;DHT22;5370;50.132;8.626;2023-04-25T00:41:10;10.40;93.80
10644;DHT22;5370;50.132;8.626;2023-04-25T00:43:36;10.40;93.90
10644;DHT22;5370;50.132;8.626;2023-04-25T00:46:02;10.30;93.80
10644;DHT22;5370;50.132;8.626;2023-04-25T00:48:28;10.30;93.90
10644;DHT22;5370;50.132;8.626;2023-04-25T00:50:55;10.40;94.00
10644;DHT22;5370;50.132;8.626;2023-04-25T00:53:23;10.30;93.90
10644;DHT22;5370;50.132;8.626;2023-04-25T00:55:49;10.30;93.90
10644;DHT22;5370;50.132;8.626;2023-04-25T00:58:17;10.30;93.90
10644;DHT22;5370;50.132;8.626;2023-04-25T01:00:44;10.30;93.90
10644;DHT22;5370;50.132;8.626;2023-04-25T01:03:11;10.30;93.90
10644;DHT22;5370;50.132;8.626;2023-04-25T01:05:37;10.30;93.90
10644;DHT22;5370;50.132;8.626;2023-04-25T01:08:02;10.30;94.00
10644;DHT22;5370;50.132;8.626;2023-04-25T01:10:28;10.30;94.00
10644;DHT22;5370;50.132;8.626;2023-04-25T01:12:53;10.30;94.00
10644;DHT22;5370;50.132;8.626;2023-04-25T01:15:20;10.30;94.10
10644;DHT22;5370;50.132;8.626;2023-04-25T01:17:45;10.30;94.10
10644;DHT22;5370;50.132;8.626;2023-04-25T01:20:12;10.30;94.00
10644;DHT22;5370;50.132;8.626;2023-04-25T01:22:38;10.30;94.30
10644;DHT22;5370;50.132;8.626;2023-04-25T01:25:05;10.20;93.80
10644;DHT22;5370;50.132;8.626;2023-04-25T01:27:32;10.20;93.60
10644;DHT22;5370;50.132;8.626;2023-04-25T01:29:58;10.20;93.40
10644;DHT22;5370;50.132;8.626;2023-04-25T01:32:24;10.20;93.30
10644;DHT22;5370;50.132;8.626;2023-04-25T01:34:50;10.20;93.20
10644;DHT22;5370;50.132;8.626;2023-04-25T01:37:16;10.20;93.10
10644;DHT22;5370;50.132;8.626;2023-04-25T01:39:43;10.10;92.80
10644;DHT22;5370;50.132;8.626;2023-04-25T01:42:08;10.10;92.80
10644;DHT22;5370;50.132;8.626;2023-04-25T01:44:34;10.10;92.70
10644;DHT22;5370;50.132;8.626;2023-04-25T01:46:59;10.10;92.70
10644;DHT22;5370;50.132;8.626;2023-04-25T01:49:25;10.10;92.70
10644;DHT22;5370;50.132;8.626;2023-04-25T01:51:51;10.10;92.60
10644;DHT22;5370;50.132;8.626;2023-04-25T01:54:17;10.00;92.50
10644;DHT22;5370;50.132;8.626;2023-04-25T01:56:43;10.00;92.50
10644;DHT22;5370;50.132;8.626;2023-04-25T01:59:15;10.00;92.50
10644;DHT22;5370;50.132;8.626;2023-04-25T02:01:40;10.00;92.50
10644;DHT22;5370;50.132;8.626;2023-04-25T02:04:06;10.00;92.50
10644;DHT22;5370;50.132;8.626;2023-04-25T02:06:31;10.00;92.50
10644;DHT22;5370;50.132;8.626;2023-04-25T02:08:57;10.00;92.50
10644;DHT22;5370;50.132;8.626;2023-04-25T02:11:23;9.90;93.00
10644;DHT22;5370;50.132;8.626;2023-04-25T02:13:48;9.90;93.00
10644;DHT22;5370;50.132;8.626;2023-04-25T02:16:14;9.90;92.90
10644;DHT22;5370;50.132;8.626;2023-04-25T02:18:39;9.90;93.00
10644;DHT22;5370;50.132;8.626;2023-04-25T02:21:05;9.90;93.00
10644;DHT22;5370;50.132;8.626;2023-04-25T02:23:30;9.90;92.90
10644;DHT22;5370;50.132;8.626;2023-04-25T02:25:56;9.80;92.90
10644;DHT22;5370;50.132;8.626;2023-04-25T02:28:23;9.80;93.00
10644;DHT22;5370;50.132;8.626;2023-04-25T02:30:49;9.80;93.10
10644;DHT22;5370;50.132;8.626;2023-04-25T02:33:15;9.80;93.10
10644;DHT22;5370;50.132;8.626;2023-04-25T02:35:42;9.80;93.00
10644;DHT22;5370;50.132;8.626;2023-04-25T02:38:07;9.80;93.00
10644;DHT22;5370;50.132;8.626;2023-04-25T02:40:33;9.80;92.90
10644;DHT22;5370;50.132;8.626;2023-04-25T02:42:58;9.70;92.80
10644;DHT22;5370;50.132;8.626;2023-04-25T02:45:24;9.70;92.80
10644;DHT22;5370;50.132;8.626;2023-04-25T02:47:49;9.70;92.80
10644;DHT22;5370;50.132;8.626;2023-04-25T02:50:15;9.70;92.80
10644;DHT22;5370;50.132;8.626;2023-04-25T02:52:41;9.70;92.80
10644;DHT22;5370;50.132;8.626;2023-04-25T02:55:06;9.70;92.80
10644;DHT22;5370;50.132;8.626;2023-04-25T02:57:32;9.70;92.70
10644;DHT22;5370;50.132;8.626;2023-04-25T02:59:57;9.60;92.70
10644;DHT22;5370;50.132;8.626;2023-04-25T03:02:23;9.60;92.70
10644;DHT22;5370;50.132;8.626;2023-04-25T03:04:48;9.60;92.60
10644;DHT22;5370;50.132;8.626;2023-04-25T03:07:14;9.60;92.60
10644;DHT22;5370;50.132;8.626;2023-04-25T03:09:39;9.60;92.60
10644;DHT22;5370;50.132;8.626;2023-04-25T03:12:05;9.60;92.60
10644;DHT22;5370;50.132;8.626;2023-04-25T03:14:31;9.60;92.60
10644;DHT22;5370;50.132;8.626;2023-04-25T03:16:56;9.60;92.60
10644;DHT22;5370;50.132;8.626;2023-04-25T03:19:22;9.60;92.50
10644;DHT22;5370;50.132;8.626;2023-04-25T03:21:47;9.60;92.50
10644;DHT22;5370;50.132;8.626;2023-04-25T03:24:13;9.60;92.40
10644;DHT22;5370;50.132;8.626;2023-04-25T03:26:39;9.60;92.40
10644;DHT22;5370;50.132;8.626;2023-04-25T03:29:04;9.60;92.40
10644;DHT22;5370;50.132;8.626;2023-04-25T03:31:30;9.60;92.30
10644;DHT22;5370;50.132;8.626;2023-04-25T03:33:56;9.60;92.30
10644;DHT22;5370;50.132;8.626;2023-04-25T03:36:21;9.60;92.30
10644;DHT22;5370;50.132;8.626;2023-04-25T03:38:47;9.60;92.30
10644;DHT22;5370;50.132;8.626;2023-04-25T03:41:13;9.60;92.30
10644;DHT22;5370;50.132;8.626;2023-04-25T03:43:39;9.60;92.20
10644;DHT22;5370;50.132;8.626;2023-04-25T03:46:04;9.60;92.20
10644;DHT22;5370;50.132;8.626;2023-04-25T03:48:30;9.60;92.10
10644;DHT22;5370;50.132;8.626;2023-04-25T03:50:56;9.60;92.10
10644;DHT22;5370;50.132;8.626;2023-04-25T03:53:21;9.60;92.30
10644;DHT22;5370;50.132;8.626;2023-04-25T03:55:47;9.60;92.00
10644;DHT22;5370;50.132;8.626;2023-04-25T03:58:12;9.60;92.00
10644;DHT22;5370;50.132;8.626;2023-04-25T04:00:38;9.60;92.10
10644;DHT22;5370;50.132;8.626;2023-04-25T04:03:03;9.60;92.00
10644;DHT22;5370;50.132;8.626;2023-04-25T04:05:29;9.50;91.90
10644;DHT22;5370;50.132;8.626;2023-04-25T04:07:55;9.50;91.90
10644;DHT22;5370;50.132;8.626;2023-04-25T04:10:21;9.50;91.80
10644;DHT22;5370;50.132;8.626;2023-04-25T04:12:47;9.50;91.80
10644;DHT22;5370;50.132;8.626;2023-04-25T04:15:12;9.40;91.70
10644;DHT22;5370;50.132;8.626;2023-04-25T04:17:38;9.30;91.50
10644;DHT22;5370;50.132;8.626;2023-04-25T04:20:04;9.20;91.20
10644;DHT22;5370;50.132;8.626;2023-04-25T04:22:31;9.20;91.30
10644;DHT22;5370;50.132;8.626;2023-04-25T04:24:57;9.10;91.30
10644;DHT22;5370;50.132;8.626;2023-04-25T04:27:22;9.10;91.50
10644;DHT22;5370;50.132;8.626;2023-04-25T04:29:48;9.00;91.50
10644;DHT22;5370;50.132;8.626;2023-04-25T04:32:15;9.00;91.50
10644;DHT22;5370;50.132;8.626;2023-04-25T04:34:41;8.90;91.20
10644;DHT22;5370;50.132;8.626;2023-04-25T04:37:06;8.80;90.90
10644;DHT22;5370;50.132;8.626;2023-04-25T04:39:33;8.80;90.60
10644;DHT22;5370;50.132;8.626;2023-04-25T04:41:59;8.70;89.80
10644;DHT22;5370;50.132;8.626;2023-04-25T04:44:27;8.70;88.40
10644;DHT22;5370;50.132;8.626;2023-04-25T04:46:54;8.60;86.30
10644;DHT22;5370;50.132;8.626;2023-04-25T04:49:19;8.50;85.60
10644;DHT22;5370;50.132;8.626;2023-04-25T04:51:45;8.40;85.40
10644;DHT22;5370;50.132;8.626;2023-04-25T04:54:10;8.40;85.50
10644;DHT22;5370;50.132;8.626;2023-04-25T04:56:36;8.40;85.10
10644;DHT22;5370;50.132;8.626;2023-04-25T04:59:01;8.40;84.90
10644;DHT22;5370;50.132;8.626;2023-04-25T05:01:28;8.50;85.10
10644;DHT22;5370;50.132;8.626;2023-04-25T05:03:55;8.50;84.50
10644;DHT22;5370;50.132;8.626;2023-04-25T05:06:27;8.50;83.40
10644;DHT22;5370;50.132;8.626;2023-04-25T05:08:54;8.60;83.30
10644;DHT22;5370;50.132;8.626;2023-04-25T05:11:20;8.60;83.10
10644;DHT22;5370;50.132;8.626;2023-04-25T05:13:46;8.70;83.10
10644;DHT22;5370;50.132;8.626;2023-04-25T05:16:12;8.80;83.30
10644;DHT22;5370;50.132;8.626;2023-04-25T05:18:39;8.90;83.20
10644;DHT22;5370;50.132;8.626;2023-04-25T05:21:04;9.10;82.90
10644;DHT22;5370;50.132;8.626;2023-04-25T05:23:31;9.20;82.60
10644;DHT22;5370;50.132;8.626;2023-04-25T05:25:57;9.40;82.80
10644;DHT22;5370;50.132;8.626;2023-04-25T05:28:23;9.60;82.60
10644;DHT22;5370;50.132;8.626;2023-04-25T05:30:48;9.80;82.50
10644;DHT22;5370;50.132;8.626;2023-04-25T05:33:14;10.00;80.60
10644;DHT22;5370;50.132;8.626;2023-04-25T05:35:40;10.20;80.20
10644;DHT22;5370;50.132;8.626;2023-04-25T05:38:06;10.50;79.80
10644;DHT22;5370;50.132;8.626;2023-04-25T05:40:31;10.80;78.90
10644;DHT22;5370;50.132;8.626;2023-04-25T05:42:57;11.20;78.20
10644;DHT22;5370;50.132;8.626;2023-04-25T05:45:22;11.60;76.70
10644;DHT22;5370;50.132;8.626;2023-04-25T05:47:48;12.00;74.70
10644;DHT22;5370;50.132;8.626;2023-04-25T05:50:14;12.50;73.70
10644;DHT22;5370;50.132;8.626;2023-04-25T05:52:39;12.90;72.30
10644;DHT22;5370;50.132;8.626;2023-04-25T05:55:05;13.20;70.10
10644;DHT22;5370;50.132;8.626;2023-04-25T05:57:31;13.40;68.20
10644;DHT22;5370;50.132;8.626;2023-04-25T05:59:56;13.50;66.10
10644;DHT22;5370;50.132;8.626;2023-04-25T06:02:22;13.40;64.30
10644;DHT22;5370;50.132;8.626;2023-04-25T06:04:51;13.40;63.40
10644;DHT22;5370;50.132;8.626;2023-04-25T06:07:17;13.40;62.60
10644;DHT22;5370;50.132;8.626;2023-04-25T06:09:43;13.50;62.40
10644;DHT22;5370;50.132;8.626;2023-04-25T06:12:09;13.90;62.10
10644;DHT22;5370;50.132;8.626;2023-04-25T06:14:34;14.10;60.80
10644;DHT22;5370;50.132;8.626;2023-04-25T06:17:00;14.50;60.00
10644;DHT22;5370;50.132;8.626;2023-04-25T06:19:35;14.90;59.10
10644;DHT22;5370;50.132;8.626;2023-04-25T06:22:01;15.30;57.60
10644;DHT22;5370;50.132;8.626;2023-04-25T06:24:27;15.60;56.30
10644;DHT22;5370;50.132;8.626;2023-04-25T06:26:53;15.70;55.20
10644;DHT22;5370;50.132;8.626;2023-04-25T06:29:19;15.80;54.10
10644;DHT22;5370;50.132;8.626;2023-04-25T06:31:44;15.90;53.90
10644;DHT22;5370;50.132;8.626;2023-04-25T06:34:10;16.10;53.80
10644;DHT22;5370;50.132;8.626;2023-04-25T06:36:36;16.50;53.80
10644;DHT22;5370;50.132;8.626;2023-04-25T06:39:01;16.80;52.20
10644;DHT22;5370;50.132;8.626;2023-04-25T06:41:27;16.90;49.90
10644;DHT22;5370;50.132;8.626;2023-04-25T06:43:52;17.10;49.10
10644;DHT22;5370;50.132;8.626;2023-04-25T06:46:18;17.10;48.90
10644;DHT22;5370;50.132;8.626;2023-04-25T06:48:43;17.20;48.40
10644;DHT22;5370;50.132;8.626;2023-04-25T06:51:09;17.40;47.20
10644;DHT22;5370;50.132;8.626;2023-04-25T06:53:35;17.70;46.60
10644;DHT22;5370;50.132;8.626;2023-04-25T06:56:01;17.90;46.10
10644;DHT22;5370;50.132;8.626;2023-04-25T06:58:26;18.10;45.70
10644;DHT22;5370;50.132;8.626;2023-04-25T07:00:52;18.10;45.40
10644;DHT22;5370;50.132;8.626;2023-04-25T07:03:17;18.20;45.00
10644;DHT22;5370;50.132;8.626;2023-04-25T07:05:43;18.30;45.10
10644;DHT22;5370;50.132;8.626;2023-04-25T07:08:08;18.20;45.00
10644;DHT22;5370;50.132;8.626;2023-04-25T07:10:34;18.10;44.60
10644;DHT22;5370;50.132;8.626;2023-04-25T07:13:00;17.80;44.60
10644;DHT22;5370;50.132;8.626;2023-04-25T07:15:25;17.50;44.90
10644;DHT22;5370;50.132;8.626;2023-04-25T07:17:51;17.30;45.20
10644;DHT22;5370;50.132;8.626;2023-04-25T07:20:17;17.30;45.20
10644;DHT22;5370;50.132;8.626;2023-04-25T07:22:42;17.70;45.50
10644;DHT22;5370;50.132;8.626;2023-04-25T07:25:08;17.90;45.10
10644;DHT22;5370;50.132;8.626;2023-04-25T07:27:34;18.10;45.00
10644;DHT22;5370;50.132;8.626;2023-04-25T07:29:59;18.20;45.00
10644;DHT22;5370;50.132;8.626;2023-04-25T07:32:25;18.10;45.30
10644;DHT22;5370;50.132;8.626;2023-04-25T07:34:52;17.90;45.50
10644;DHT22;5370;50.132;8.626;2023-04-25T07:37:17;17.90;46.40
10644;DHT22;5370;50.132;8.626;2023-04-25T07:39:44;18.30;46.70
10644;DHT22;5370;50.132;8.626;2023-04-25T07:42:11;19.00;46.30
10644;DHT22;5370;50.132;8.626;2023-04-25T07:44:36;19.70;45.50
10644;DHT22;5370;50.132;8.626;2023-04-25T07:47:07;20.30;44.70
10644;DHT22;5370;50.132;8.626;2023-04-25T07:49:36;20.80;43.30
10644;DHT22;5370;50.132;8.626;2023-04-25T07:52:03;20.80;42.30
10644;DHT22;5370;50.132;8.626;2023-04-25T07:54:29;21.00;42.60
10644;DHT22;5370;50.132;8.626;2023-04-25T07:56:55;21.30;41.80
10644;DHT22;5370;50.132;8.626;2023-04-25T07:59:20;22.00;41.00
10644;DHT22;5370;50.132;8.626;2023-04-25T08:01:47;22.50;39.40
10644;DHT22;5370;50.132;8.626;2023-04-25T08:04:12;22.90;39.30
10644;DHT22;5370;50.132;8.626;2023-04-25T08:06:38;23.90;38.80
10644;DHT22;5370;50.132;8.626;2023-04-25T08:09:03;24.90;37.10
10644;DHT22;5370;50.132;8.626;2023-04-25T08:11:29;25.10;35.70
10644;DHT22;5370;50.132;8.626;2023-04-25T08:13:55;25.50;36.20
10644;DHT22;5370;50.132;8.626;2023-04-25T08:16:21;25.40;33.90
10644;DHT22;5370;50.132;8.626;2023-04-25T08:18:47;24.70;32.60
10644;DHT22;5370;50.132;8.626;2023-04-25T08:21:12;23.40;32.60
10644;DHT22;5370;50.132;8.626;2023-04-25T08:23:38;21.80;32.20
10644;DHT22;5370;50.132;8.626;2023-04-25T08:26:04;20.20;33.40
10644;DHT22;5370;50.132;8.626;2023-04-25T08:28:31;19.00;34.70
10644;DHT22;5370;50.132;8.626;2023-04-25T08:30:56;17.80;36.00
10644;DHT22;5370;50.132;8.626;2023-04-25T08:33:22;16.70;37.80
10644;DHT22;5370;50.132;8.626;2023-04-25T08:35:47;16.00;39.20
10644;DHT22;5370;50.132;8.626;2023-04-25T08:38:13;15.80;40.40
10644;DHT22;5370;50.132;8.626;2023-04-25T08:40:39;15.80;40.50
10644;DHT22;5370;50.132;8.626;2023-04-25T08:43:08;16.30;41.10
10644;DHT22;5370;50.132;8.626;2023-04-25T08:45:39;17.00;40.40
10644;DHT22;5370;50.132;8.626;2023-04-25T08:48:10;17.50;39.50
10644;DHT22;5370;50.132;8.626;2023-04-25T08:53:32;17.70;39.00
10644;DHT22;5370;50.132;8.626;2023-04-25T08:56:00;17.60;38.80
10644;DHT22;5370;50.132;8.626;2023-04-25T08:58:28;17.30;39.20
10644;DHT22;5370;50.132;8.626;2023-04-25T09:00:53;17.20;39.40
10644;DHT22;5370;50.132;8.626;2023-04-25T09:03:19;17.10;40.40
10644;DHT22;5370;50.132;8.626;2023-04-25T09:05:45;17.20;40.40
10644;DHT22;5370;50.132;8.626;2023-04-25T09:08:10;17.30;40.50
10644;DHT22;5370;50.132;8.626;2023-04-25T09:10:37;17.40;39.90
10644;DHT22;5370;50.132;8.626;2023-04-25T09:13:14;17.40;38.90
10644;DHT22;5370;50.132;8.626;2023-04-25T09:16:00;17.30;39.10
10644;DHT22;5370;50.132;8.626;2023-04-25T09:18:31;17.40;39.30
10644;DHT22;5370;50.132;8.626;2023-04-25T09:21:09;17.60;39.10
10644;DHT22;5370;50.132;8.626;2023-04-25T09:23:48;17.50;38.80
10644;DHT22;5370;50.132;8.626;2023-04-25T09:26:20;17.30;38.80
10644;DHT22;5370;50.132;8.626;2023-04-25T09:28:47;16.80;38.20
10644;DHT22;5370;50.132;8.626;2023-04-25T09:31:22;16.50;39.10
10644;DHT22;5370;50.132;8.626;2023-04-25T09:33:49;16.40;39.60
10644;DHT22;5370;50.132;8.626;2023-04-25T09:36:15;16.30;40.00
10644;DHT22;5370;50.132;8.626;2023-04-25T09:38:42;16.20;40.40
10644;DHT22;5370;50.132;8.626;2023-04-25T09:41:09;16.30;40.60
10644;DHT22;5370;50.132;8.626;2023-04-25T09:43:36;16.30;39.80
10644;DHT22;5370;50.132;8.626;2023-04-25T09:46:02;16.00;39.80
10644;DHT22;5370;50.132;8.626;2023-04-25T09:48:28;15.90;40.20
10644;DHT22;5370;50.132;8.626;2023-04-25T09:51:13;15.70;40.20
10644;DHT22;5370;50.132;8.626;2023-04-25T09:53:41;15.60;40.10
10644;DHT22;5370;50.132;8.626;2023-04-25T09:56:11;15.50;40.40
10644;DHT22;5370;50.132;8.626;2023-04-25T09:58:38;15.60;40.90
10644;DHT22;5370;50.132;8.626;2023-04-25T10:01:08;15.70;40.80
10644;DHT22;5370;50.132;8.626;2023-04-25T10:03:35;15.70;40.00
10644;DHT22;5370;50.132;8.626;2023-04-25T10:06:07;15.70;40.30
10644;DHT22;5370;50.132;8.626;2023-04-25T10:08:35;15.90;40.60
10644;DHT22;5370;50.132;8.626;2023-04-25T10:11:05;16.10;40.50
10644;DHT22;5370;50.132;8.626;2023-04-25T10:13:31;16.40;40.50
10644;DHT22;5370;50.132;8.626;2023-04-25T10:15:59;16.50;40.00
10644;DHT22;5370;50.132;8.626;2023-04-25T10:18:26;16.70;39.70
10644;DHT22;5370;50.132;8.626;2023-04-25T10:20:54;16.70;39.40
10644;DHT22;5370;50.132;8.626;2023-04-25T10:23:20;16.70;39.70
10644;DHT22;5370;50.132;8.626;2023-04-25T10:25:46;16.70;39.60
10644;DHT22;5370;50.132;8.626;2023-04-25T10:28:12;16.60;39.60
10644;DHT22;5370;50.132;8.626;2023-04-25T10:30:37;16.50;39.50
10644;DHT22;5370;50.132;8.626;2023-04-25T10:33:39;16.40;39.70
10644;DHT22;5370;50.132;8.626;2023-04-25T10:36:13;16.00;40.60
10644;DHT22;5370;50.132;8.626;2023-04-25T10:38:39;15.60;41.70
10644;DHT22;5370;50.132;8.626;2023-04-25T10:41:06;15.10;42.60
10644;DHT22;5370;50.132;8.626;2023-04-25T10:49:02;14.20;45.00
10644;DHT22;5370;50.132;8.626;2023-04-25T10:51:32;14.00;45.70
10644;DHT22;5370;50.132;8.626;2023-04-25T10:54:05;13.70;46.20
10644;DHT22;5370;50.132;8.626;2023-04-25T10:56:42;13.50;46.50
10644;DHT22;5370;50.132;8.626;2023-04-25T10:59:16;13.50;46.90
10644;DHT22;5370;50.132;8.626;2023-04-25T11:01:51;13.60;47.10
10644;DHT22;5370;50.132;8.626;2023-04-25T11:04:32;13.70;47.10
10644;DHT22;5370;50.132;8.626;2023-04-25T11:07:13;13.90;46.70
10644;DHT22;5370;50.132;8.626;2023-04-25T11:09:41;14.20;46.30
10644;DHT22;5370;50.132;8.626;2023-04-25T11:12:10;14.30;46.00
10644;DHT22;5370;50.132;8.626;2023-04-25T11:14:37;14.50;45.80
10644;DHT22;5370;50.132;8.626;2023-04-25T11:17:02;14.60;45.20
10644;DHT22;5370;50.132;8.626;2023-04-25T11:19:29;14.70;45.20
10644;DHT22;5370;50.132;8.626;2023-04-25T11:21:58;14.60;45.00
10644;DHT22;5370;50.132;8.626;2023-04-25T11:24:32;14.60;44.80
10644;DHT22;5370;50.132;8.626;2023-04-25T11:26:59;14.50;44.60
10644;DHT22;5370;50.132;8.626;2023-04-25T11:29:28;14.50;44.50
10644;DHT22;5370;50.132;8.626;2023-04-25T11:31:54;14.60;44.60
10644;DHT22;5370;50.132;8.626;2023-04-25T11:34:24;14.70;44.70
10644;DHT22;5370;50.132;8.626;2023-04-25T11:36:50;14.80;44.40
10644;DHT22;5370;50.132;8.626;2023-04-25T11:39:18;14.90;44.00
10644;DHT22;5370;50.132;8.626;2023-04-25T11:41:44;15.20;44.00
10644;DHT22;5370;50.132;8.626;2023-04-25T11:44:10;15.50;43.50
10644;DHT22;5370;50.132;8.626;2023-04-25T11:46:35;15.60;42.40
10644;DHT22;5370;50.132;8.626;2023-04-25T11:49:01;15.80;42.10
10644;DHT22;5370;50.132;8.626;2023-04-25T11:51:27;15.90;41.60
10644;DHT22;5370;50.132;8.626;2023-04-25T11:53:53;16.00;41.30
10644;DHT22;5370;50.132;8.626;2023-04-25T11:56:18;16.00;40.90
10644;DHT22;5370;50.132;8.626;2023-04-25T11:58:59;16.10;40.30
10644;DHT22;5370;50.132;8.626;2023-04-25T12:01:29;16.00;40.30
10644;DHT22;5370;50.132;8.626;2023-04-25T12:03:58;15.80;40.50
10644;DHT22;5370;50.132;8.626;2023-04-25T12:06:28;15.70;40.50
10644;DHT22;5370;50.132;8.626;2023-04-25T12:09:03;15.60;40.40
10644;DHT22;5370;50.132;8.626;2023-04-25T12:11:40;15.50;40.40
10644;DHT22;5370;50.132;8.626;2023-04-25T12:14:06;15.30;40.30
10644;DHT22;5370;50.132;8.626;2023-04-25T12:16:45;15.20;40.40
10644;DHT22;5370;50.132;8.626;2023-04-25T12:19:15;15.00;40.50
10644;DHT22;5370;50.132;8.626;2023-04-25T12:21:41;14.80;40.50
10644;DHT22;5370;50.132;8.626;2023-04-25T12:29:22;14.10;41.30
10644;DHT22;5370;50.132;8.626;2023-04-25T12:31:49;14.00;41.80
10644;DHT22;5370;50.132;8.626;2023-04-25T12:34:16;13.90;42.20
10644;DHT22;5370;50.132;8.626;2023-04-25T12:36:42;13.90;42.70
10644;DHT22;5370;50.132;8.626;2023-04-25T12:39:08;13.80;42.90
10644;DHT22;5370;50.132;8.626;2023-04-25T12:41:33;13.90;43.20
10644;DHT22;5370;50.132;8.626;2023-04-25T12:43:59;13.90;43.30
10644;DHT22;5370;50.132;8.626;2023-04-25T12:46:24;14.10;43.20
10644;DHT22;5370;50.132;8.626;2023-04-25T12:48:50;14.30;42.80
10644;DHT22;5370;50.132;8.626;2023-04-25T12:51:15;14.50;42.70
10644;DHT22;5370;50.132;8.626;2023-04-25T12:53:41;14.80;42.60
10644;DHT22;5370;50.132;8.626;2023-04-25T12:56:07;15.00;42.30
10644;DHT22;5370;50.132;8.626;2023-04-25T12:58:33;15.30;41.80
10644;DHT22;5370;50.132;8.626;2023-04-25T13:00:59;15.60;41.30
10644;DHT22;5370;50.132;8.626;2023-04-25T13:03:25;15.70;40.90
10644;DHT22;5370;50.132;8.626;2023-04-25T13:05:51;16.00;40.60
10644;DHT22;5370;50.132;8.626;2023-04-25T13:08:18;16.10;39.80
10644;DHT22;5370;50.132;8.626;2023-04-25T13:10:44;16.20;39.50
10644;DHT22;5370;50.132;8.626;2023-04-25T13:13:09;16.40;39.60
10644;DHT22;5370;50.132;8.626;2023-04-25T13:15:35;16.50;39.50
10644;DHT22;5370;50.132;8.626;2023-04-25T13:18:02;16.60;39.20
10644;DHT22;5370;50.132;8.626;2023-04-25T13:20:28;16.70;39.10
10644;DHT22;5370;50.132;8.626;2023-04-25T13:22:53;16.70;38.40
10644;DHT22;5370;50.132;8.626;2023-04-25T13:25:19;16.70;38.10
10644;DHT22;5370;50.132;8.626;2023-04-25T13:27:45;16.70;38.20
10644;DHT22;5370;50.132;8.626;2023-04-25T13:30:11;16.80;38.00
10644;DHT22;5370;50.132;8.626;2023-04-25T13:32:38;16.60;37.70
10644;DHT22;5370;50.132;8.626;2023-04-25T13:35:05;16.60;37.90
10644;DHT22;5370;50.132;8.626;2023-04-25T13:37:31;16.50;37.70
10644;DHT22;5370;50.132;8.626;2023-04-25T13:39:59;16.50;37.80
10644;DHT22;5370;50.132;8.626;2023-04-25T13:42:25;16.50;37.60
10644;DHT22;5370;50.132;8.626;2023-04-25T13:44:51;16.40;37.50
10644;DHT22;5370;50.132;8.626;2023-04-25T13:47:17;16.40;37.60
10644;DHT22;5370;50.132;8.626;2023-04-25T13:49:42;16.30;37.50
10644;DHT22;5370;50.132;8.626;2023-04-25T13:52:08;16.10;37.70
10644;DHT22;5370;50.132;8.626;2023-04-25T13:54:33;16.10;38.00
10644;DHT22;5370;50.132;8.626;2023-04-25T13:56:59;16.00;38.20
10644;DHT22;5370;50.132;8.626;2023-04-25T13:59:25;16.00;38.20
10644;DHT22;5370;50.132;8.626;2023-04-25T14:01:51;15.90;37.90
10644;DHT22;5370;50.132;8.626;2023-04-25T14:04:17;15.90;38.10
10644;DHT22;5370;50.132;8.626;2023-04-25T14:06:42;15.80;37.90
10644;DHT22;5370;50.132;8.626;2023-04-25T14:09:08;15.80;37.50
10644;DHT22;5370;50.132;8.626;2023-04-25T14:11:39;15.80;37.70
10644;DHT22;5370;50.132;8.626;2023-04-25T14:14:04;15.90;37.50
10644;DHT22;5370;50.132;8.626;2023-04-25T14:16:30;16.00;37.40
10644;DHT22;5370;50.132;8.626;2023-04-25T14:18:58;16.00;37.40
10644;DHT22;5370;50.132;8.626;2023-04-25T14:21:23;16.00;37.30
10644;DHT22;5370;50.132;8.626;2023-04-25T14:23:49;16.10;37.40
10644;DHT22;5370;50.132;8.626;2023-04-25T14:26:15;16.10;37.40
10644;DHT22;5370;50.132;8.626;2023-04-25T14:28:41;16.10;36.90
10644;DHT22;5370;50.132;8.626;2023-04-25T14:31:07;16.00;36.40
10644;DHT22;5370;50.132;8.626;2023-04-25T14:33:33;15.90;36.20
10644;DHT22;5370;50.132;8.626;2023-04-25T14:35:59;15.70;35.90
10644;DHT22;5370;50.132;8.626;2023-04-25T14:38:24;15.50;36.10
10644;DHT22;5370;50.132;8.626;2023-04-25T14:40:51;15.30;36.60
10644;DHT22;5370;50.132;8.626;2023-04-25T14:43:17;15.10;36.70
10644;DHT22;5370;50.132;8.626;2023-04-25T14:45:43;15.00;36.50
10644;DHT22;5370;50.132;8.626;2023-04-25T14:48:08;15.00;36.60
10644;DHT22;5370;50.132;8.626;2023-04-25T14:50:34;14.90;36.70
10644;DHT22;5370;50.132;8.626;2023-04-25T14:52:59;14.90;36.50
10644;DHT22;5370;50.132;8.626;2023-04-25T14:55:29;14.80;36.40
10644;DHT22;5370;50.132;8.626;2023-04-25T14:57:55;14.70;36.70
10644;DHT22;5370;50.132;8.626;2023-04-25T15:00:20;14.80;37.00
10644;DHT22;5370;50.132;8.626;2023-04-25T15:02:50;14.70;36.90
10644;DHT22;5370;50.132;8.626;2023-04-25T15:05:16;14.70;37.00
10644;DHT22;5370;50.132;8.626;2023-04-25T15:07:43;14.70;37.20
10644;DHT22;5370;50.132;8.626;2023-04-25T15:10:09;14.70;37.70
10644;DHT22;5370;50.132;8.626;2023-04-25T15:12:41;14.80;38.00
10644;DHT22;5370;50.132;8.626;2023-04-25T15:15:07;14.90;38.30
10644;DHT22;5370;50.132;8.626;2023-04-25T15:17:37;14.90;38.20
10644;DHT22;5370;50.132;8.626;2023-04-25T15:20:04;15.00;38.40
10644;DHT22;5370;50.132;8.626;2023-04-25T15:22:30;15.10;38.70
10644;DHT22;5370;50.132;8.626;2023-04-25T15:24:56;15.10;38.80
10644;DHT22;5370;50.132;8.626;2023-04-25T15:27:22;15.10;38.80
10644;DHT22;5370;50.132;8.626;2023-04-25T15:29:48;15.10;39.00
10644;DHT22;5370;50.132;8.626;2023-04-25T15:32:14;15.10;38.90
10644;DHT22;5370;50.132;8.626;2023-04-25T15:34:39;15.30;38.90
10644;DHT22;5370;50.132;8.626;2023-04-25T15:37:05;15.40;38.90
10644;DHT22;5370;50.132;8.626;2023-04-25T15:39:31;15.30;38.50
10644;DHT22;5370;50.132;8.626;2023-04-25T15:41:56;15.30;38.60
10644;DHT22;5370;50.132;8.626;2023-04-25T15:44:23;15.20;38.60
10644;DHT22;5370;50.132;8.626;2023-04-25T15:46:49;15.10;38.40
10644;DHT22;5370;50.132;8.626;2023-04-25T15:49:15;15.10;38.50
10644;DHT22;5370;50.132;8.626;2023-04-25T15:51:40;15.20;38.60
10644;DHT22;5370;50.132;8.626;2023-04-25T15:54:06;15.20;38.40
10644;DHT22;5370;50.132;8.626;2023-04-25T15:56:32;15.30;37.50
10644;DHT22;5370;50.132;8.626;2023-04-25T15:58:58;15.40;37.30
10644;DHT22;5370;50.132;8.626;2023-04-25T16:01:23;15.40;36.70